Time;durP1;ratioP1;P1;durP2;ratioP2;P2;SDS_P1;SDS_P2;PMS_P1;PMS_P2;Temp;Humidity;BMP_temperature;BMP_pressure;BME280_temperature;BME280_humidity;BME280_pressure;Samples;Min_cycle;Max_cycle;Signal;HPM_P1;HPM_P2
2021/09/09 00:00:03;;;;;;;;;;;;;;;;;;5042061;28;19998;-68
2021/09/09 00:02:30;;;;;;;;;;;;;;;;;;5051918;28;20013;-68
2021/09/09 00:04:57;;;;;;;;;;;;;;;;;;5051999;28;20001;-68
2021/09/09 00:07:24;;;;;;;;;;;;;;;;;;5052126;28;20022;-69
2021/09/09 00:09:50;;;;;;;;;;;;;;;;;;5052255;28;20006;-69
2021/09/09 00:12:17;;;;;;;;;;;;;;;;;;5051906;28;20024;-68
2021/09/09 00:14:44;;;;;;;;;;;;;;;;;;5052486;28;20001;-68
2021/09/09 00:17:11;;;;;;;;;;;;;;;;;;5052573;28;20392;-68
2021/09/09 00:19:38;;;;;;;;;;;;;;;;;;5052347;28;20001;-68
2021/09/09 00:22:05;;;;;;;;;;;;;;;;;;5052443;28;20002;-69
2021/09/09 00:24:32;;;;;;;;;;;;;;;;;;5052703;28;20012;-69
2021/09/09 00:26:59;;;;;;;;;;;;;;;;;;5052615;28;20017;-68
2021/09/09 00:29:26;;;;;;;;;;;;;;;;;;5052324;28;20009;-68
2021/09/09 00:31:53;;;;;;;;;;;;;;;;;;5051724;28;20013;-68
2021/09/09 00:34:19;;;;;;;;;;;;;;;;;;5052166;28;20001;-69
2021/09/09 00:36:46;;;;;;;;;;;;;;;;;;5054041;28;20527;-69
2021/09/09 00:39:13;;;;;;;;;;;;;;;;;;5056430;28;20002;-69
2021/09/09 00:41:40;;;;;;;;;;;;;;;;;;5055936;28;20028;-68
2021/09/09 00:44:07;;;;;;;;;;;;;;;;;;5056406;28;20008;-69
2021/09/09 00:46:34;;;;;;;;;;;;;;;;;;5056122;28;20018;-68
2021/09/09 00:49:01;;;;;;;;;;;;;;;;;;5056033;28;20387;-69
2021/09/09 00:51:28;;;;;;;;;;;;;;;;;;5055874;28;20022;-71
2021/09/09 00:53:55;;;;;;;;;;;;;;;;;;5056187;28;20002;-68
2021/09/09 00:56:22;;;;;;;;;;;;;;;;;;5055579;28;20029;-69
2021/09/09 00:58:49;;;;;;;;;;;;;;;;;;5055669;28;20005;-68
2021/09/09 01:01:15;;;;;;;;;;;;;;;;;;5055260;28;20002;-69
2021/09/09 01:03:42;;;;;;;;;;;;;;;;;;5055773;28;20379;-69
2021/09/09 01:06:09;;;;;;;;;;;;;;;;;;5055470;28;20021;-69
2021/09/09 01:08:36;;;;;;;;;;;;;;;;;;5055375;28;20027;-69
2021/09/09 01:11:03;;;;;;;;;;;;;;;;;;5055140;28;20013;-68
2021/09/09 01:13:30;;;;;;;;;;;;;;;;;;5055809;28;20013;-69
2021/09/09 01:15:57;;;;;;;;;;;;;;;;;;5055960;28;20500;-68
2021/09/09 01:18:24;;;;;;;;;;;;;;;;;;5056289;28;20008;-69
2021/09/09 01:20:51;;;;;;;;;;;;;;;;;;5055228;28;20001;-69
2021/09/09 01:23:18;;;;;;;;;;;;;;;;;;5055676;28;20008;-69
2021/09/09 01:25:45;;;;;;;;;;;;;;;;;;5054888;28;20018;-69
2021/09/09 01:28:12;;;;;;;;;;;;;;;;;;5055028;28;20495;-68
2021/09/09 01:30:39;;;;;;;;;;;;;;;;;;5054914;28;20002;-68
2021/09/09 01:33:06;;;;;;;;;;;;;;;;;;5054825;28;20047;-69
2021/09/09 01:35:33;;;;;;;;;;;;;;;;;;5054966;28;20373;-69
2021/09/09 01:38:00;;;;;;;;;;;;;;;;;;5055153;28;20009;-68
2021/09/09 01:40:26;;;;;;;;;;;;;;;;;;5055013;28;20002;-69
2021/09/09 01:42:53;;;;;;;;;;;;;;;;;;5054683;28;20006;-69
2021/09/09 01:45:20;;;;;;;;;;;;;;;;;;5054851;28;20005;-68
2021/09/09 01:47:47;;;;;;;;;;;;;;;;;;5054138;28;20002;-69
2021/09/09 01:50:14;;;;;;;;;;;;;;;;;;5054408;28;20001;-69
2021/09/09 01:52:41;;;;;;;;;;;;;;;;;;5054788;28;20017;-69
2021/09/09 01:55:08;;;;;;;;;;;;;;;;;;5054375;28;20495;-68
2021/09/09 01:57:35;;;;;;;;;;;;;;;;;;5054070;28;20013;-69
2021/09/09 02:00:04;;;;;;;;;;;;;;;;;;5054527;28;20369;-69
2021/09/09 02:02:31;;;;;;;;;;;;;;;;;;5053971;28;20088;-68
2021/09/09 02:04:58;;;;;;;;;;;;;;;;;;5054432;28;20368;-69
2021/09/09 02:07:25;;;;;;;;;;;;;;;;;;5054258;28;20018;-69
2021/09/09 02:09:52;;;;;;;;;;;;;;;;;;5054062;28;20005;-69
2021/09/09 02:12:18;;;;;;;;;;;;;;;;;;5053483;28;20013;-66
2021/09/09 02:14:45;;;;;;;;;;;;;;;;;;5054300;28;20009;-66
2021/09/09 02:17:12;;;;;;;;;;;;;;;;;;5054189;28;20018;-66
2021/09/09 02:19:39;;;;;;;;;;;;;;;;;;5054249;28;20002;-66
2021/09/09 02:22:06;;;;;;;;;;;;;;;;;;5053393;28;20001;-66
2021/09/09 02:24:33;;;;;;;;;;;;;;;;;;5053850;28;20001;-66
2021/09/09 02:27:00;;;;;;;;;;;;;;;;;;5053866;28;20112;-66
2021/09/09 02:29:27;;;;;;;;;;;;;;;;;;5053982;28;20001;-66
2021/09/09 02:31:54;;;;;;;;;;;;;;;;;;5053522;28;20025;-66
2021/09/09 02:34:21;;;;;;;;;;;;;;;;;;5053722;28;20001;-65
2021/09/09 02:36:48;;;;;;;;;;;;;;;;;;5053295;28;20523;-66
2021/09/09 02:39:14;;;;;;;;;;;;;;;;;;5053519;28;20008;-66
2021/09/09 02:41:41;;;;;;;;;;;;;;;;;;5053372;28;20002;-66
2021/09/09 02:44:08;;;;;;;;;;;;;;;;;;5053492;28;20002;-66
2021/09/09 02:46:35;;;;;;;;;;;;;;;;;;5053539;28;20024;-65
2021/09/09 02:49:03;;;;;;;;;;;;;;;;;;5053381;28;20465;-66
2021/09/09 02:51:30;;;;;;;;;;;;;;;;;;5053116;28;20392;-67
2021/09/09 02:53:57;;;;;;;;;;;;;;;;;;5053028;28;20014;-67
2021/09/09 02:56:24;;;;;;;;;;;;;;;;;;5053363;28;20028;-66
2021/09/09 02:58:51;;;;;;;;;;;;;;;;;;5052146;28;20001;-66
2021/09/09 03:01:18;;;;;;;;;;;;;;;;;;5053236;28;20001;-66
2021/09/09 03:03:45;;;;;;;;;;;;;;;;;;5054191;28;20002;-66
2021/09/09 03:06:11;;;;;;;;;;;;;;;;;;5053280;28;20024;-66
2021/09/09 03:08:38;;;;;;;;;;;;;;;;;;5053235;28;20005;-69
2021/09/09 03:11:05;;;;;;;;;;;;;;;;;;5053219;28;20028;-67
2021/09/09 03:13:32;;;;;;;;;;;;;;;;;;5053183;28;20005;-67
2021/09/09 03:15:59;;;;;;;;;;;;;;;;;;5052968;28;20028;-67
2021/09/09 03:18:26;;;;;;;;;;;;;;;;;;5052681;28;20002;-67
2021/09/09 03:20:53;;;;;;;;;;;;;;;;;;5052468;28;20002;-67
2021/09/09 03:23:20;;;;;;;;;;;;;;;;;;5052611;28;20002;-66
2021/09/09 03:25:47;;;;;;;;;;;;;;;;;;5052848;28;20024;-67
2021/09/09 03:28:14;;;;;;;;;;;;;;;;;;5052955;28;20002;-67
2021/09/09 03:30:41;;;;;;;;;;;;;;;;;;5052362;28;20373;-67
2021/09/09 03:33:07;;;;;;;;;;;;;;;;;;5052950;28;20018;-67
2021/09/09 03:35:34;;;;;;;;;;;;;;;;;;5052810;28;20041;-67
2021/09/09 03:38:01;;;;;;;;;;;;;;;;;;5052491;28;20001;-67
2021/09/09 03:40:28;;;;;;;;;;;;;;;;;;5053398;28;20009;-66
2021/09/09 03:42:55;;;;;;;;;;;;;;;;;;5052745;28;20353;-69
2021/09/09 03:45:22;;;;;;;;;;;;;;;;;;5052240;28;20013;-67
2021/09/09 03:47:49;;;;;;;;;;;;;;;;;;5040312;28;20001;-67
2021/09/09 03:50:16;;;;;;;;;;;;;;;;;;5038643;28;20448;-69
2021/09/09 03:52:43;;;;;;;;;;;;;;;;;;5036686;28;20025;-66
2021/09/09 03:55:10;;;;;;;;;;;;;;;;;;5032661;28;20002;-69
2021/09/09 03:57:37;;;;;;;;;;;;;;;;;;5032051;28;20453;-66
2021/09/09 04:00:03;;;;;;;;;;;;;;;;;;5033011;28;20360;-67
2021/09/09 04:02:30;;;;;;;;;;;;;;;;;;5032131;28;20009;-67
2021/09/09 04:04:57;;;;;;;;;;;;;;;;;;5032516;28;20002;-67
2021/09/09 04:07:24;;;;;;;;;;;;;;;;;;5031886;28;20519;-67
2021/09/09 04:09:51;;;;;;;;;;;;;;;;;;5032167;28;20002;-66
2021/09/09 04:12:18;;;;;;;;;;;;;;;;;;5032002;28;20018;-67
2021/09/09 04:14:45;;;;;;;;;;;;;;;;;;5032143;28;20002;-67
2021/09/09 04:17:12;;;;;;;;;;;;;;;;;;5032095;28;20025;-67
2021/09/09 04:19:39;;;;;;;;;;;;;;;;;;5032190;28;20408;-67
2021/09/09 04:22:08;;;;;;;;;;;;;;;;;;5032150;28;20009;-67
2021/09/09 04:24:35;;;;;;;;;;;;;;;;;;5032251;28;20048;-67
2021/09/09 04:27:02;;;;;;;;;;;;;;;;;;5031976;28;20032;-67
2021/09/09 04:29:29;;;;;;;;;;;;;;;;;;5031760;28;20002;-66
2021/09/09 04:31:56;;;;;;;;;;;;;;;;;;5031754;28;20025;-67
2021/09/09 04:34:23;;;;;;;;;;;;;;;;;;5032196;28;20006;-67
2021/09/09 04:36:50;;;;;;;;;;;;;;;;;;5032087;28;20385;-67
2021/09/09 04:39:17;;;;;;;;;;;;;;;;;;5031912;28;20013;-67
2021/09/09 04:41:44;;;;;;;;;;;;;;;;;;5031331;28;20002;-67
2021/09/09 04:44:11;;;;;;;;;;;;;;;;;;5031947;28;20002;-67
2021/09/09 04:46:38;;;;;;;;;;;;;;;;;;5031882;28;20022;-67
2021/09/09 04:49:04;;;;;;;;;;;;;;;;;;5031803;28;20009;-68
2021/09/09 04:51:31;;;;;;;;;;;;;;;;;;5031865;28;20382;-67
2021/09/09 04:53:58;;;;;;;;;;;;;;;;;;5031602;28;20025;-67
2021/09/09 04:56:25;;;;;;;;;;;;;;;;;;5031522;28;20021;-67
2021/09/09 04:58:52;;;;;;;;;;;;;;;;;;5031493;28;20009;-67
2021/09/09 05:01:19;;;;;;;;;;;;;;;;;;5031600;28;20002;-67
2021/09/09 05:03:46;;;;;;;;;;;;;;;;;;5031593;28;20377;-67
2021/09/09 05:06:13;;;;;;;;;;;;;;;;;;5031848;28;20017;-67
2021/09/09 05:08:40;;;;;;;;;;;;;;;;;;5031755;28;20009;-66
2021/09/09 05:11:07;;;;;;;;;;;;;;;;;;5031333;28;20465;-67
2021/09/09 05:13:34;;;;;;;;;;;;;;;;;;5031321;28;20033;-67
2021/09/09 05:16:00;;;;;;;;;;;;;;;;;;5031824;28;20018;-69
2021/09/09 05:18:27;;;;;;;;;;;;;;;;;;5031625;28;20002;-67
2021/09/09 05:20:54;;;;;;;;;;;;;;;;;;5031372;28;20002;-66
2021/09/09 05:23:21;;;;;;;;;;;;;;;;;;5033959;28;20480;-66
2021/09/09 05:25:48;;;;;;;;;;;;;;;;;;5034624;28;20018;-67
2021/09/09 05:28:15;;;;;;;;;;;;;;;;;;5035292;28;20006;-67
2021/09/09 05:30:42;;;;;;;;;;;;;;;;;;5035411;28;20453;-67
2021/09/09 05:33:09;;;;;;;;;;;;;;;;;;5035183;28;20021;-67
2021/09/09 05:35:36;;;;;;;;;;;;;;;;;;5034888;28;20018;-67
2021/09/09 05:38:03;;;;;;;;;;;;;;;;;;5034855;28;20456;-67
2021/09/09 05:40:30;;;;;;;;;;;;;;;;;;5034720;28;20002;-67
2021/09/09 05:42:56;;;;;;;;;;;;;;;;;;5035192;28;20009;-67
2021/09/09 05:45:23;;;;;;;;;;;;;;;;;;5034724;28;20002;-67
2021/09/09 05:47:50;;;;;;;;;;;;;;;;;;5035156;28;20009;-67
2021/09/09 05:50:18;;;;;;;;;;;;;;;;;;5035093;28;20028;-67
2021/09/09 05:52:45;;;;;;;;;;;;;;;;;;5034955;28;20033;-67
2021/09/09 05:55:11;;;;;;;;;;;;;;;;;;5034502;28;20028;-67
2021/09/09 05:57:38;;;;;;;;;;;;;;;;;;5053043;22;20014;-68
2021/09/09 06:00:05;;;;;;;;;;;;;;;;;;5033947;28;19998;-66
2021/09/09 06:02:33;;;;;;;;;;;;;;;;;;5033880;28;20009;-67
2021/09/09 06:05:00;;;;;;;;;;;;;;;;;;5034345;28;20002;-68
2021/09/09 06:07:27;;;;;;;;;;;;;;;;;;5033833;28;20068;-67
2021/09/09 06:09:54;;;;;;;;;;;;;;;;;;5034606;28;20002;-67
2021/09/09 06:12:26;;;;;;;;;;;;;;;;;;5033472;28;20476;-66
2021/09/09 06:14:53;;;;;;;;;;;;;;;;;;5034086;28;20101;-65
2021/09/09 06:17:20;;;;;;;;;;;;;;;;;;5034022;28;20018;-67
2021/09/09 06:19:47;;;;;;;;;;;;;;;;;;5033884;28;20108;-67
2021/09/09 06:22:14;;;;;;;;;;;;;;;;;;5033837;28;20006;-66
2021/09/09 06:24:41;;;;;;;;;;;;;;;;;;5033594;28;20002;-67
2021/09/09 06:27:08;;;;;;;;;;;;;;;;;;5033599;28;20024;-66
2021/09/09 06:29:35;;;;;;;;;;;;;;;;;;5034080;28;20009;-67
2021/09/09 06:32:01;;;;;;;;;;;;;;;;;;5033851;28;20005;-66
2021/09/09 06:34:30;;;;;;;;;;;;;;;;;;5033892;28;20009;-67
2021/09/09 06:36:56;;;;;;;;;;;;;;;;;;5033560;28;20018;-67
2021/09/09 06:39:23;;;;;;;;;;;;;;;;;;5033302;28;20453;-67
2021/09/09 06:41:50;;;;;;;;;;;;;;;;;;5033510;28;20002;-66
2021/09/09 06:44:17;;;;;;;;;;;;;;;;;;5033726;28;20002;-67
2021/09/09 06:46:44;;;;;;;;;;;;;;;;;;5033355;28;20017;-64
2021/09/09 06:49:11;;;;;;;;;;;;;;;;;;5033507;28;20002;-67
2021/09/09 06:51:38;;;;;;;;;;;;;;;;;;5033185;28;20005;-66
2021/09/09 06:54:05;;;;;;;;;;;;;;;;;;5033294;28;20018;-66
2021/09/09 06:56:32;;;;;;;;;;;;;;;;;;5033148;28;20025;-67
2021/09/09 06:58:59;;;;;;;;;;;;;;;;;;5033382;28;20457;-66
2021/09/09 07:01:26;;;;;;;;;;;;;;;;;;5033222;28;20009;-66
2021/09/09 07:03:52;;;;;;;;;;;;;;;;;;5032982;28;20002;-66
2021/09/09 07:06:19;;;;;;;;;;;;;;;;;;5033402;28;20018;-66
2021/09/09 07:08:46;;;;;;;;;;;;;;;;;;5033281;28;20002;-65
2021/09/09 07:11:13;;;;;;;;;;;;;;;;;;5032788;28;20002;-66
2021/09/09 07:13:40;;;;;;;;;;;;;;;;;;5033090;28;20025;-67
2021/09/09 07:16:07;;;;;;;;;;;;;;;;;;5032722;28;20018;-66
2021/09/09 07:18:34;;;;;;;;;;;;;;;;;;5032778;28;20392;-66
2021/09/09 07:21:01;;;;;;;;;;;;;;;;;;5033014;28;20002;-66
2021/09/09 07:23:28;;;;;;;;;;;;;;;;;;5032960;28;20403;-67
2021/09/09 07:25:55;;;;;;;;;;;;;;;;;;5032854;28;20002;-66
2021/09/09 07:28:22;;;;;;;;;;;;;;;;;;5032975;28;20002;-66
2021/09/09 07:30:49;;;;;;;;;;;;;;;;;;5032430;28;20001;-66
2021/09/09 07:33:16;;;;;;;;;;;;;;;;;;5032804;28;20029;-66
2021/09/09 07:35:43;;;;;;;;;;;;;;;;;;5032850;28;20002;-66
2021/09/09 07:38:10;;;;;;;;;;;;;;;;;;5032859;28;20002;-66
2021/09/09 07:40:37;;;;;;;;;;;;;;;;;;5032292;28;20454;-66
2021/09/09 07:43:04;;;;;;;;;;;;;;;;;;5032397;28;20005;-66
2021/09/09 07:45:31;;;;;;;;;;;;;;;;;;5032105;28;20002;-66
2021/09/09 07:47:58;;;;;;;;;;;;;;;;;;5032272;28;20487;-66
2021/09/09 07:50:25;;;;;;;;;;;;;;;;;;5032314;28;20013;-66
2021/09/09 07:52:51;;;;;;;;;;;;;;;;;;5032327;28;20013;-65
2021/09/09 07:55:19;;;;;;;;;;;;;;;;;;5032207;28;20002;-66
2021/09/09 07:57:45;;;;;;;;;;;;;;;;;;5031782;28;20108;-65
2021/09/09 08:00:12;;;;;;;;;;;;;;;;;;5031963;28;20377;-66
2021/09/09 08:02:39;;;;;;;;;;;;;;;;;;5032276;28;20002;-66
2021/09/09 08:05:06;;;;;;;;;;;;;;;;;;5032069;28;20008;-66
2021/09/09 08:07:33;;;;;;;;;;;;;;;;;;5032147;28;20018;-67
2021/09/09 08:10:00;;;;;;;;;;;;;;;;;;5032280;28;20013;-66
2021/09/09 08:12:27;;;;;;;;;;;;;;;;;;5032093;28;20001;-66
2021/09/09 08:14:54;;;;;;;;;;;;;;;;;;5032351;28;20022;-66
2021/09/09 08:17:21;;;;;;;;;;;;;;;;;;5031950;28;20069;-66
2021/09/09 08:19:48;;;;;;;;;;;;;;;;;;5032277;28;20009;-65
2021/09/09 08:22:15;;;;;;;;;;;;;;;;;;5031996;28;20002;-66
2021/09/09 08:24:42;;;;;;;;;;;;;;;;;;5032201;28;20045;-66
2021/09/09 08:27:09;;;;;;;;;;;;;;;;;;5031926;28;20014;-66
2021/09/09 08:29:36;;;;;;;;;;;;;;;;;;5032167;28;20002;-65
2021/09/09 08:32:03;;;;;;;;;;;;;;;;;;5031717;28;20457;-66
2021/09/09 08:34:30;;;;;;;;;;;;;;;;;;5031898;28;20021;-65
2021/09/09 08:36:57;;;;;;;;;;;;;;;;;;5031784;28;20018;-65
2021/09/09 08:39:24;;;;;;;;;;;;;;;;;;5031873;28;20461;-66
2021/09/09 08:41:51;;;;;;;;;;;;;;;;;;5031777;28;20452;-66
2021/09/09 08:44:18;;;;;;;;;;;;;;;;;;5032059;28;20001;-65
2021/09/09 08:46:45;;;;;;;;;;;;;;;;;;5031718;28;20029;-65
2021/09/09 08:49:11;;;;;;;;;;;;;;;;;;5031658;28;20002;-65
2021/09/09 08:51:38;;;;;;;;;;;;;;;;;;5031516;28;20001;-64
2021/09/09 08:54:05;;;;;;;;;;;;;;;;;;5031658;28;20014;-65
2021/09/09 08:56:32;;;;;;;;;;;;;;;;;;5031570;28;20032;-66
2021/09/09 08:58:59;;;;;;;;;;;;;;;;;;5035322;28;20002;-65
2021/09/09 09:01:26;;;;;;;;;;;;;;;;;;5035627;28;20002;-66
2021/09/09 09:03:53;;;;;;;;;;;;;;;;;;5035330;28;20008;-66
2021/09/09 09:06:20;;;;;;;;;;;;;;;;;;5035653;28;20017;-66
2021/09/09 09:08:47;;;;;;;;;;;;;;;;;;5035302;28;20375;-65
2021/09/09 09:11:14;;;;;;;;;;;;;;;;;;5034910;28;20002;-66
2021/09/09 09:13:41;;;;;;;;;;;;;;;;;;5035363;28;20018;-66
2021/09/09 09:16:07;;;;;;;;;;;;;;;;;;5035283;28;20488;-66
2021/09/09 09:18:34;;;;;;;;;;;;;;;;;;5035021;28;20002;-66
2021/09/09 09:21:01;;;;;;;;;;;;;;;;;;5034947;28;20009;-66
2021/09/09 09:23:28;;;;;;;;;;;;;;;;;;5034837;28;20002;-66
2021/09/09 09:25:56;;;;;;;;;;;;;;;;;;5035241;28;20006;-65
2021/09/09 09:28:23;;;;;;;;;;;;;;;;;;5034684;28;20480;-66
2021/09/09 09:30:50;;;;;;;;;;;;;;;;;;5034731;28;20005;-66
2021/09/09 09:33:17;;;;;;;;;;;;;;;;;;5035002;28;20014;-66
2021/09/09 09:35:44;;;;;;;;;;;;;;;;;;5034745;28;20480;-66
2021/09/09 09:38:11;;;;;;;;;;;;;;;;;;5034638;28;20006;-66
2021/09/09 09:40:42;;;;;;;;;;;;;;;;;;5034840;28;20008;-64
2021/09/09 09:43:09;;;;;;;;;;;;;;;;;;5034861;28;19998;-65
2021/09/09 09:45:36;;;;;;;;;;;;;;;;;;5034850;28;20014;-66
2021/09/09 09:48:03;;;;;;;;;;;;;;;;;;5034682;28;20024;-66
2021/09/09 09:50:30;;;;;;;;;;;;;;;;;;5034554;28;20472;-66
2021/09/09 09:52:57;;;;;;;;;;;;;;;;;;5034833;28;20001;-66
2021/09/09 09:55:24;;;;;;;;;;;;;;;;;;5034776;28;20018;-66
2021/09/09 09:57:51;;;;;;;;;;;;;;;;;;5034334;28;20021;-66
2021/09/09 10:00:17;;;;;;;;;;;;;;;;;;5034520;28;20002;-66
2021/09/09 10:02:44;;;;;;;;;;;;;;;;;;5034735;28;20358;-66
2021/09/09 10:05:11;;;;;;;;;;;;;;;;;;5034291;28;20081;-64
2021/09/09 10:07:38;;;;;;;;;;;;;;;;;;5033794;28;20382;-66
2021/09/09 10:10:05;;;;;;;;;;;;;;;;;;5034418;28;20014;-66
2021/09/09 10:12:32;;;;;;;;;;;;;;;;;;5034066;28;20013;-66
2021/09/09 10:14:59;;;;;;;;;;;;;;;;;;5034075;28;20480;-66
2021/09/09 10:17:26;;;;;;;;;;;;;;;;;;5033928;28;20032;-66
2021/09/09 10:19:53;;;;;;;;;;;;;;;;;;5034098;28;20002;-66
2021/09/09 10:22:20;;;;;;;;;;;;;;;;;;5034037;28;20096;-66
2021/09/09 10:24:47;;;;;;;;;;;;;;;;;;5034048;28;20009;-66
2021/09/09 10:27:14;;;;;;;;;;;;;;;;;;5034037;28;20018;-66
2021/09/09 10:29:41;;;;;;;;;;;;;;;;;;5033991;28;20002;-66
2021/09/09 10:32:08;;;;;;;;;;;;;;;;;;5033382;28;20002;-66
2021/09/09 10:34:35;;;;;;;;;;;;;;;;;;5033748;28;20041;-65
2021/09/09 10:37:03;;;;;;;;;;;;;;;;;;5033754;28;20029;-66
2021/09/09 10:39:31;;;;;;;;;;;;;;;;;;5033888;28;20072;-66
2021/09/09 10:41:57;;;;;;;;;;;;;;;;;;5033693;28;20002;-66
2021/09/09 10:44:24;;;;;;;;;;;;;;;;;;5033605;28;20400;-66
2021/09/09 10:46:51;;;;;;;;;;;;;;;;;;5033281;28;20017;-66
2021/09/09 10:49:18;;;;;;;;;;;;;;;;;;5033793;28;20001;-66
2021/09/09 10:51:45;;;;;;;;;;;;;;;;;;5033172;28;20013;-65
2021/09/09 10:54:12;;;;;;;;;;;;;;;;;;5033344;28;20014;-65
2021/09/09 10:56:39;;;;;;;;;;;;;;;;;;5033349;28;20029;-65
2021/09/09 10:59:06;;;;;;;;;;;;;;;;;;5033708;28;20041;-66
2021/09/09 11:01:33;;;;;;;;;;;;;;;;;;5033312;28;20025;-66
2021/09/09 11:04:00;;;;;;;;;;;;;;;;;;5033290;28;20006;-66
2021/09/09 11:06:28;;;;;;;;;;;;;;;;;;5033311;28;20022;-66
2021/09/09 11:08:55;;;;;;;;;;;;;;;;;;5033493;28;20005;-66
2021/09/09 11:11:22;;;;;;;;;;;;;;;;;;5033245;28;20024;-66
2021/09/09 11:13:49;;;;;;;;;;;;;;;;;;5032859;28;20217;-66
2021/09/09 11:16:16;;;;;;;;;;;;;;;;;;5033474;28;20022;-66
2021/09/09 11:18:43;;;;;;;;;;;;;;;;;;5032894;28;20465;-67
2021/09/09 11:21:10;;;;;;;;;;;;;;;;;;5032113;28;20001;-66
2021/09/09 11:23:37;;;;;;;;;;;;;;;;;;5032716;28;20013;-66
2021/09/09 11:26:04;;;;;;;;;;;;;;;;;;5033255;28;20018;-66
2021/09/09 11:28:31;;;;;;;;;;;;;;;;;;5032742;28;20009;-66
2021/09/09 11:30:58;;;;;;;;;;;;;;;;;;5032925;28;20012;-66
2021/09/09 11:33:24;;;;;;;;;;;;;;;;;;5033092;28;20002;-66
2021/09/09 11:35:51;;;;;;;;;;;;;;;;;;5032589;28;20025;-66
2021/09/09 11:38:18;;;;;;;;;;;;;;;;;;5032823;28;20009;-65
2021/09/09 11:40:45;;;;;;;;;;;;;;;;;;5032428;28;20009;-66
2021/09/09 11:43:12;;;;;;;;;;;;;;;;;;5032312;28;20005;-66
2021/09/09 11:45:39;;;;;;;;;;;;;;;;;;5032759;28;20002;-66
2021/09/09 11:48:06;;;;;;;;;;;;;;;;;;5032762;28;20025;-66
2021/09/09 11:50:33;;;;;;;;;;;;;;;;;;5032674;28;20380;-66
2021/09/09 11:53:00;;;;;;;;;;;;;;;;;;5033633;28;20006;-66
2021/09/09 11:55:28;;;;;;;;;;;;;;;;;;5032442;28;20057;-66
2021/09/09 11:57:55;;;;;;;;;;;;;;;;;;5048715;22;20025;-69
2021/09/09 12:00:22;;;;;;;;;;;;;;;;;;5031847;28;20001;-69
2021/09/09 12:02:48;;;;;;;;;;;;;;;;;;5031701;28;19994;-69
2021/09/09 12:05:15;;;;;;;;;;;;;;;;;;5031975;28;20427;-69
2021/09/09 12:07:42;;;;;;;;;;;;;;;;;;5032000;28;20018;-70
2021/09/09 12:10:10;;;;;;;;;;;;;;;;;;5031844;28;20025;-69
2021/09/09 12:12:37;;;;;;;;;;;;;;;;;;5032071;28;20002;-69
2021/09/09 12:15:04;;;;;;;;;;;;;;;;;;5031602;28;20017;-70
2021/09/09 12:17:31;;;;;;;;;;;;;;;;;;5032050;28;20024;-69
2021/09/09 12:19:58;;;;;;;;;;;;;;;;;;5032116;28;20028;-69
2021/09/09 12:22:24;;;;;;;;;;;;;;;;;;5032140;28;20002;-70
2021/09/09 12:24:51;;;;;;;;;;;;;;;;;;5032403;28;20006;-70
2021/09/09 12:27:19;;;;;;;;;;;;;;;;;;5031535;28;20533;-69
2021/09/09 12:29:47;;;;;;;;;;;;;;;;;;5032015;28;20048;-69
2021/09/09 12:32:14;;;;;;;;;;;;;;;;;;5034714;28;20001;-69
2021/09/09 12:34:41;;;;;;;;;;;;;;;;;;5035770;28;20484;-69
2021/09/09 12:37:08;;;;;;;;;;;;;;;;;;5035935;28;20029;-69
2021/09/09 12:39:35;;;;;;;;;;;;;;;;;;5036045;28;20001;-69
2021/09/09 12:42:02;;;;;;;;;;;;;;;;;;5035798;28;20009;-69
2021/09/09 12:44:29;;;;;;;;;;;;;;;;;;5035951;28;20002;-69
2021/09/09 12:46:56;;;;;;;;;;;;;;;;;;5035664;28;20388;-69
2021/09/09 12:49:23;;;;;;;;;;;;;;;;;;5036081;28;20001;-69
2021/09/09 12:51:50;;;;;;;;;;;;;;;;;;5035348;28;20053;-69
2021/09/09 12:54:16;;;;;;;;;;;;;;;;;;5035946;28;20013;-69
2021/09/09 12:56:43;;;;;;;;;;;;;;;;;;5035457;28;20029;-68
2021/09/09 12:59:10;;;;;;;;;;;;;;;;;;5035823;28;20001;-69
2021/09/09 13:01:37;;;;;;;;;;;;;;;;;;5035391;28;20006;-69
2021/09/09 13:04:04;;;;;;;;;;;;;;;;;;5035243;28;20009;-69
2021/09/09 13:06:31;;;;;;;;;;;;;;;;;;5035271;28;20025;-70
2021/09/09 13:08:58;;;;;;;;;;;;;;;;;;5035358;28;20013;-69
2021/09/09 13:11:25;;;;;;;;;;;;;;;;;;5035471;28;20002;-70
2021/09/09 13:13:52;;;;;;;;;;;;;;;;;;5035379;28;20001;-69
2021/09/09 13:16:19;;;;;;;;;;;;;;;;;;5035314;28;20018;-69
2021/09/09 13:18:46;;;;;;;;;;;;;;;;;;5034919;28;20002;-69
2021/09/09 13:21:13;;;;;;;;;;;;;;;;;;5035130;28;20052;-70
2021/09/09 13:23:40;;;;;;;;;;;;;;;;;;5035348;28;20002;-69
2021/09/09 13:26:07;;;;;;;;;;;;;;;;;;5034853;28;20453;-70
2021/09/09 13:28:38;;;;;;;;;;;;;;;;;;5035003;28;20013;-70
2021/09/09 13:31:05;;;;;;;;;;;;;;;;;;5035051;28;19998;-69
2021/09/09 13:33:32;;;;;;;;;;;;;;;;;;5035186;28;20002;-68
2021/09/09 13:35:59;;;;;;;;;;;;;;;;;;5035817;28;20500;-69
2021/09/09 13:38:27;;;;;;;;;;;;;;;;;;5035671;28;20024;-69
2021/09/09 13:40:54;;;;;;;;;;;;;;;;;;5035821;28;20002;-69
2021/09/09 13:43:21;;;;;;;;;;;;;;;;;;5034555;28;20002;-69
2021/09/09 13:45:48;;;;;;;;;;;;;;;;;;5035552;28;20006;-69
2021/09/09 13:48:15;;;;;;;;;;;;;;;;;;5035207;28;20072;-68
2021/09/09 13:50:42;;;;;;;;;;;;;;;;;;5035336;28;20002;-69
2021/09/09 13:53:09;;;;;;;;;;;;;;;;;;5035469;28;20028;-68
2021/09/09 13:55:36;;;;;;;;;;;;;;;;;;5035629;28;20021;-68
2021/09/09 13:58:02;;;;;;;;;;;;;;;;;;5035387;28;20044;-68
2021/09/09 14:00:29;;;;;;;;;;;;;;;;;;5035036;28;20449;-69
2021/09/09 14:02:56;;;;;;;;;;;;;;;;;;5035360;28;20009;-68
2021/09/09 14:05:23;;;;;;;;;;;;;;;;;;5035185;28;20032;-69
2021/09/09 14:07:50;;;;;;;;;;;;;;;;;;5035075;28;20025;-69
2021/09/09 14:10:17;;;;;;;;;;;;;;;;;;5035247;28;20002;-68
2021/09/09 14:12:44;;;;;;;;;;;;;;;;;;5035233;28;20009;-68
2021/09/09 14:15:11;;;;;;;;;;;;;;;;;;5035467;28;20285;-68
2021/09/09 14:17:38;;;;;;;;;;;;;;;;;;5036145;28;20041;-69
2021/09/09 14:20:05;;;;;;;;;;;;;;;;;;5035414;28;20002;-69
2021/09/09 14:22:32;;;;;;;;;;;;;;;;;;5034876;28;20009;-68
2021/09/09 14:24:58;;;;;;;;;;;;;;;;;;5035054;28;20350;-68
2021/09/09 14:27:25;;;;;;;;;;;;;;;;;;5035041;28;20025;-68
2021/09/09 14:29:52;;;;;;;;;;;;;;;;;;5034523;28;20006;-68
2021/09/09 14:32:19;;;;;;;;;;;;;;;;;;5034270;28;20613;-69
2021/09/09 14:34:46;;;;;;;;;;;;;;;;;;5034718;28;20021;-68
2021/09/09 14:37:13;;;;;;;;;;;;;;;;;;5033693;28;20018;-69
2021/09/09 14:39:41;;;;;;;;;;;;;;;;;;5034709;28;20009;-69
2021/09/09 14:42:08;;;;;;;;;;;;;;;;;;5034981;28;20423;-68
2021/09/09 14:44:35;;;;;;;;;;;;;;;;;;5034925;28;20001;-69
2021/09/09 14:47:02;;;;;;;;;;;;;;;;;;5034727;28;20017;-69
2021/09/09 14:49:30;;;;;;;;;;;;;;;;;;5034100;28;20479;-68
2021/09/09 14:51:57;;;;;;;;;;;;;;;;;;5034693;28;20001;-68
2021/09/09 14:54:25;;;;;;;;;;;;;;;;;;5034432;28;20009;-68
2021/09/09 14:56:52;;;;;;;;;;;;;;;;;;5034244;28;20021;-68
2021/09/09 14:59:19;;;;;;;;;;;;;;;;;;5034611;28;20385;-68
2021/09/09 15:01:46;;;;;;;;;;;;;;;;;;5033480;28;20002;-68
2021/09/09 15:04:13;;;;;;;;;;;;;;;;;;5033819;28;20009;-68
2021/09/09 15:06:39;;;;;;;;;;;;;;;;;;5033235;28;20392;-69
2021/09/09 15:09:07;;;;;;;;;;;;;;;;;;5033611;28;20002;-68
2021/09/09 15:11:34;;;;;;;;;;;;;;;;;;5033108;28;20055;-69
2021/09/09 15:14:02;;;;;;;;;;;;;;;;;;5034014;28;20002;-68
2021/09/09 15:16:29;;;;;;;;;;;;;;;;;;5033655;28;20435;-68
2021/09/09 15:18:56;;;;;;;;;;;;;;;;;;5033861;28;20002;-69
2021/09/09 15:21:23;;;;;;;;;;;;;;;;;;5033501;28;20009;-68
2021/09/09 15:23:50;;;;;;;;;;;;;;;;;;5034233;28;20457;-69
2021/09/09 15:26:17;;;;;;;;;;;;;;;;;;5033917;28;20002;-68
2021/09/09 15:28:44;;;;;;;;;;;;;;;;;;5033793;28;20002;-69
2021/09/09 15:31:11;;;;;;;;;;;;;;;;;;5033425;28;20002;-68
2021/09/09 15:33:38;;;;;;;;;;;;;;;;;;5033956;28;20009;-69
2021/09/09 15:36:05;;;;;;;;;;;;;;;;;;5033947;28;20013;-68
2021/09/09 15:38:32;;;;;;;;;;;;;;;;;;5033562;28;20009;-68
2021/09/09 15:40:59;;;;;;;;;;;;;;;;;;5032951;28;20395;-68
2021/09/09 15:43:26;;;;;;;;;;;;;;;;;;5033653;28;20009;-68
2021/09/09 15:45:53;;;;;;;;;;;;;;;;;;5033417;28;20240;-68
2021/09/09 15:48:20;;;;;;;;;;;;;;;;;;5033197;28;20105;-68
2021/09/09 15:50:46;;;;;;;;;;;;;;;;;;5033415;28;20002;-68
2021/09/09 15:53:13;;;;;;;;;;;;;;;;;;5033277;28;20377;-68
2021/09/09 15:55:42;;;;;;;;;;;;;;;;;;5033105;28;20025;-68
2021/09/09 15:58:09;;;;;;;;;;;;;;;;;;5032633;28;20033;-68
2021/09/09 16:00:36;;;;;;;;;;;;;;;;;;5032833;28;20465;-68
2021/09/09 16:03:03;;;;;;;;;;;;;;;;;;5033440;28;20009;-68
2021/09/09 16:05:30;;;;;;;;;;;;;;;;;;5032479;28;20002;-68
2021/09/09 16:07:57;;;;;;;;;;;;;;;;;;5032447;28;20018;-68
2021/09/09 16:10:24;;;;;;;;;;;;;;;;;;5033265;28;20001;-68
2021/09/09 16:12:51;;;;;;;;;;;;;;;;;;5032901;28;20009;-68
2021/09/09 16:15:18;;;;;;;;;;;;;;;;;;5032996;28;20021;-68
2021/09/09 16:17:45;;;;;;;;;;;;;;;;;;5032834;28;20018;-68
2021/09/09 16:20:12;;;;;;;;;;;;;;;;;;5032659;28;20469;-68
2021/09/09 16:22:39;;;;;;;;;;;;;;;;;;5033131;28;20056;-68
2021/09/09 16:25:06;;;;;;;;;;;;;;;;;;5032581;28;20002;-68
2021/09/09 16:27:33;;;;;;;;;;;;;;;;;;5032729;28;20496;-68
2021/09/09 16:30:00;;;;;;;;;;;;;;;;;;5033310;28;20013;-68
2021/09/09 16:32:27;;;;;;;;;;;;;;;;;;5032499;28;20002;-69
2021/09/09 16:34:53;;;;;;;;;;;;;;;;;;5032675;28;20002;-68
2021/09/09 16:37:20;;;;;;;;;;;;;;;;;;5033367;28;20029;-68
2021/09/09 16:39:47;;;;;;;;;;;;;;;;;;5032900;28;20445;-68
2021/09/09 16:42:14;;;;;;;;;;;;;;;;;;5033082;28;20002;-68